createdAt,value
2023-05-22T09:04:30.074Z,21.42
2023-05-22T09:06:59.839Z,21.10
2023-05-22T09:08:08.344Z,21.13
2023-05-22T09:08:59.808Z,21.42
2023-05-22T09:09:59.798Z,21.59
2023-05-22T09:10:59.814Z,21.84
2023-05-22T09:11:59.756Z,21.71
2023-05-22T09:12:59.750Z,21.58
2023-05-22T09:13:59.746Z,21.52
2023-05-22T09:14:59.722Z,21.58
2023-05-22T09:15:59.737Z,21.59
2023-05-22T09:18:14.446Z,21.92
2023-05-22T09:19:14.431Z,21.88
2023-05-22T09:20:14.394Z,22.02
2023-05-22T09:35:02.174Z,21.54
2023-05-22T09:36:02.204Z,21.50
2023-05-22T09:37:02.165Z,21.68
2023-05-22T09:38:02.140Z,21.84
2023-05-22T09:39:02.151Z,21.91
2023-05-22T09:40:02.114Z,22.24
2023-05-22T09:41:02.104Z,21.96
2023-05-22T09:42:02.064Z,21.92
2023-05-22T09:43:02.081Z,21.98
2023-05-22T09:44:02.394Z,21.99
2023-05-22T09:45:02.055Z,22.21
2023-05-22T09:46:02.503Z,22.36
2023-05-22T09:47:09.056Z,22.46
2023-05-22T09:48:02.064Z,22.35
2023-05-22T09:49:01.984Z,22.10
2023-05-22T09:50:01.985Z,22.06
2023-05-22T09:54:17.005Z,22.09
2023-05-22T09:55:16.979Z,22.02
2023-05-22T09:56:24.008Z,22.15
2023-05-22T09:59:51.136Z,21.88
2023-05-22T10:01:36.451Z,21.77
2023-05-22T10:02:36.395Z,22.22
2023-05-22T10:03:36.388Z,22.40
2023-05-22T10:04:36.427Z,22.46
2023-05-22T10:05:36.388Z,22.60
2023-05-22T10:06:36.371Z,22.35
2023-05-22T10:07:36.352Z,22.40
2023-05-22T10:08:36.320Z,22.03
2023-05-22T10:09:36.328Z,22.42
2023-05-22T10:10:36.324Z,22.80
2023-05-22T10:11:36.328Z,22.83
2023-05-22T10:12:36.262Z,22.58
2023-05-22T10:13:36.276Z,22.02
2023-05-22T10:14:45.618Z,21.84
2023-05-22T10:15:36.242Z,22.12
2023-05-22T10:16:36.269Z,22.31
2023-05-22T10:17:36.242Z,22.02
2023-05-22T10:18:36.186Z,22.15
2023-05-22T10:19:37.733Z,22.33
2023-05-22T10:20:36.197Z,22.75
2023-05-22T10:21:36.154Z,22.98
2023-05-22T10:23:43.306Z,22.60
2023-05-22T10:24:43.356Z,22.24
2023-05-22T10:25:43.290Z,22.33
2023-05-22T10:26:43.255Z,22.27
2023-05-22T10:27:43.274Z,22.17
2023-05-22T10:28:43.267Z,22.03
2023-05-22T10:29:43.234Z,22.02
2023-05-22T10:30:43.399Z,21.90
2023-05-22T10:31:43.205Z,22.05
2023-05-22T10:32:43.259Z,22.27
2023-05-22T10:33:43.222Z,22.30
2023-05-22T10:34:43.186Z,22.31
2023-05-22T10:35:43.172Z,22.20
2023-05-22T10:36:43.755Z,22.30
2023-05-22T10:37:43.158Z,22.49
2023-05-22T10:38:43.133Z,22.55
2023-05-22T10:39:43.130Z,22.57
2023-05-22T10:40:43.218Z,22.42
2023-05-22T10:42:08.125Z,22.24
2023-05-22T10:43:08.140Z,22.18
2023-05-22T10:44:08.114Z,22.30
2023-05-22T10:45:08.139Z,22.18
2023-05-22T10:46:08.117Z,22.05
2023-05-22T10:47:08.093Z,22.28
2023-05-22T10:48:08.249Z,22.65
2023-05-22T10:49:08.038Z,22.80
2023-05-22T10:50:08.084Z,23.10
2023-05-22T10:51:08.024Z,23.02
2023-05-22T10:52:08.005Z,22.92
2023-05-22T10:53:07.993Z,22.76
2023-05-22T10:54:15.843Z,22.67
2023-05-22T10:55:07.981Z,22.28
2023-05-22T10:56:08.039Z,22.46
2023-05-22T10:57:07.976Z,22.35
2023-05-22T10:58:07.975Z,22.43
2023-05-22T10:59:08.167Z,22.68
2023-05-22T11:00:07.928Z,22.72
2023-05-22T11:01:07.900Z,22.79
2023-05-22T11:02:09.689Z,23.04
2023-05-22T11:03:17.301Z,22.85
2023-05-22T11:04:07.859Z,22.98
2023-05-22T11:05:07.916Z,22.68
2023-05-22T11:06:07.863Z,22.91
2023-05-22T11:07:07.870Z,23.02
2023-05-22T11:08:07.831Z,23.00
2023-05-22T11:09:07.811Z,22.83
2023-05-22T11:10:07.800Z,22.92
2023-05-22T11:11:07.804Z,23.31
2023-05-22T11:12:07.861Z,23.28
2023-05-22T11:13:07.780Z,23.04
2023-05-22T11:14:07.761Z,22.86
2023-05-22T11:15:07.785Z,22.92
2023-05-22T11:16:07.720Z,22.45
2023-05-22T11:17:07.834Z,22.05
2023-05-22T11:18:07.752Z,21.96
2023-05-22T11:19:21.672Z,22.37
2023-05-22T11:20:07.795Z,22.91
2023-05-22T11:21:07.688Z,22.49
2023-05-22T11:22:07.660Z,22.39
2023-05-22T11:23:07.673Z,22.75
2023-05-22T11:24:07.634Z,22.98
2023-05-22T11:25:07.648Z,22.77
2023-05-22T11:26:07.601Z,22.79
2023-05-22T11:27:07.615Z,23.05
2023-05-22T11:28:07.658Z,23.13
2023-05-22T11:29:07.614Z,23.70
2023-05-22T11:30:07.566Z,22.65
2023-05-22T11:31:07.619Z,22.42
2023-05-22T11:32:07.553Z,22.79
2023-05-22T11:33:07.585Z,23.22
2023-05-22T11:34:07.617Z,22.86
2023-05-22T11:35:07.669Z,22.98
2023-05-22T11:36:07.540Z,23.47
2023-05-22T11:37:07.514Z,23.07
2023-05-22T11:38:07.519Z,23.07
2023-05-22T11:39:07.460Z,23.13
2023-05-22T11:40:07.474Z,23.32
2023-05-22T11:41:07.431Z,22.95
2023-05-22T11:42:07.463Z,23.39
2023-05-22T11:43:07.424Z,22.80
2023-05-22T11:44:07.472Z,22.82
2023-05-22T11:45:07.437Z,22.77
2023-05-22T11:46:07.407Z,22.80
2023-05-22T11:47:07.371Z,23.00
2023-05-22T11:48:07.419Z,23.07
2023-05-22T11:49:07.341Z,23.04
2023-05-22T11:50:07.359Z,23.16
2023-05-22T11:51:07.338Z,23.53
2023-05-22T11:52:07.315Z,24.06
2023-05-22T11:53:07.299Z,23.79
2023-05-22T11:54:07.308Z,23.68
2023-05-22T11:55:07.281Z,23.42
2023-05-22T11:56:07.273Z,23.35
2023-05-22T11:57:07.244Z,23.39
2023-05-22T11:58:07.248Z,23.72
2023-05-22T11:59:07.227Z,23.70
2023-05-22T12:00:07.332Z,23.54
2023-05-22T12:01:07.220Z,23.32
2023-05-22T12:02:07.178Z,23.69
2023-05-22T12:03:07.286Z,23.97
2023-05-22T12:04:07.268Z,23.61
2023-05-22T12:05:07.184Z,23.43
2023-05-22T12:06:07.169Z,23.32
2023-05-22T12:07:07.142Z,23.57
2023-05-22T12:08:07.130Z,23.90
2023-05-22T12:09:07.125Z,23.63
2023-05-22T12:10:07.159Z,23.54
2023-05-22T12:11:07.091Z,23.61
2023-05-22T12:12:07.059Z,24.15
2023-05-22T12:13:07.075Z,23.40
2023-05-22T12:14:07.054Z,23.19
2023-05-22T12:15:07.102Z,23.55
2023-05-22T12:16:07.147Z,23.10
2023-05-22T12:17:07.024Z,23.04
2023-05-22T12:18:07.027Z,23.43
2023-05-22T12:19:07.036Z,23.70
2023-05-22T12:20:06.987Z,24.06
2023-05-22T12:21:06.995Z,24.12
2023-05-22T12:22:06.962Z,23.90
2023-05-22T12:23:06.942Z,22.98
2023-05-22T12:24:07.010Z,23.54
2023-05-22T12:25:06.934Z,24.15
2023-05-22T12:26:06.923Z,24.35
2023-05-22T12:27:06.921Z,24.40
2023-05-22T12:28:06.935Z,23.93
2023-05-22T12:29:06.896Z,23.97
2023-05-22T12:30:06.923Z,23.46
2023-05-22T12:31:06.896Z,23.51
2023-05-22T12:32:06.980Z,23.91
2023-05-22T12:33:06.881Z,23.88
2023-05-22T12:34:06.836Z,23.91
2023-05-22T12:35:07.281Z,23.36
2023-05-22T12:36:06.830Z,23.91
2023-05-22T12:37:06.781Z,24.09
2023-05-22T12:38:06.763Z,24.49
2023-05-22T12:39:06.753Z,24.87
2023-05-22T12:40:06.734Z,24.53
2023-05-22T12:41:06.758Z,24.49
2023-05-22T12:42:06.732Z,24.46
2023-05-22T12:43:06.712Z,24.95
2023-05-22T12:44:06.720Z,24.49
2023-05-22T12:45:06.704Z,24.60
2023-05-22T12:46:06.742Z,24.10
2023-05-22T12:47:06.670Z,23.93
2023-05-22T12:48:06.881Z,24.03
2023-05-22T12:49:06.672Z,23.61
2023-05-22T12:50:06.659Z,23.84
2023-05-22T12:51:06.635Z,24.09
2023-05-22T12:52:06.629Z,24.15
2023-05-22T12:53:06.600Z,24.50
2023-05-22T12:54:06.609Z,24.46
2023-05-22T12:55:06.613Z,24.13
2023-05-22T12:56:06.589Z,24.28
2023-05-22T12:57:06.587Z,24.53
2023-05-22T12:58:06.569Z,24.55
2023-05-22T12:59:06.565Z,24.40
2023-05-22T13:00:06.523Z,24.60
2023-05-22T13:01:06.578Z,25.00
2023-05-22T13:02:06.584Z,25.09
2023-05-22T13:03:06.596Z,25.17
2023-05-22T13:04:06.574Z,24.93
2023-05-22T13:05:06.554Z,24.85
2023-05-22T13:06:06.519Z,25.02
2023-05-22T13:07:06.460Z,24.60
2023-05-22T13:08:06.458Z,24.65
2023-05-22T13:09:06.498Z,24.60
2023-05-22T13:10:06.434Z,23.98
2023-05-22T13:11:06.431Z,24.03
2023-05-22T13:12:06.470Z,24.09
2023-05-22T13:13:06.395Z,24.91
2023-05-22T13:14:06.397Z,25.00
2023-05-22T13:15:06.405Z,25.45
2023-05-22T13:16:06.386Z,25.67
2023-05-22T13:17:06.359Z,25.85
2023-05-22T13:18:06.431Z,26.07
2023-05-22T13:19:06.390Z,25.45
2023-05-22T13:20:06.533Z,25.20
2023-05-22T13:21:06.351Z,24.95
2023-05-22T13:22:06.322Z,24.45
2023-05-22T13:23:06.308Z,24.58
2023-05-22T13:24:06.284Z,24.87
2023-05-22T13:25:06.285Z,24.58
2023-05-22T13:26:06.299Z,24.91
2023-05-22T13:27:06.278Z,24.68
2023-05-22T13:28:06.253Z,25.03
2023-05-22T13:29:06.287Z,24.84
2023-05-22T13:30:06.233Z,25.30
2023-05-22T13:31:06.263Z,24.98
2023-05-22T13:32:06.226Z,24.90
2023-05-22T13:33:06.248Z,25.10
2023-05-22T13:34:06.238Z,25.15
2023-05-22T13:35:06.237Z,25.32
2023-05-22T13:36:06.271Z,25.47
2023-05-22T13:37:06.178Z,25.47
2023-05-22T13:38:06.181Z,25.03
2023-05-22T13:39:06.160Z,25.57
2023-05-22T13:40:06.157Z,25.77
2023-05-22T13:41:06.161Z,25.99
2023-05-22T13:42:06.150Z,25.36
2023-05-22T13:43:06.143Z,25.05
2023-05-22T13:44:06.134Z,25.40
2023-05-22T13:45:06.147Z,25.55
2023-05-22T13:46:06.113Z,25.45
2023-05-22T13:47:06.163Z,25.36
2023-05-22T13:48:06.112Z,24.52
2023-05-22T13:49:06.082Z,25.03
2023-05-22T13:50:06.099Z,25.30
2023-05-22T13:51:06.079Z,25.28
2023-05-22T13:52:06.130Z,25.57
2023-05-22T13:53:06.100Z,25.13
2023-05-22T13:54:06.046Z,25.33
2023-05-22T13:55:06.060Z,25.80
2023-05-22T13:56:06.040Z,25.69
2023-05-22T13:57:06.033Z,25.69
2023-05-22T13:58:06.032Z,26.18
2023-05-22T13:59:08.440Z,26.54
2023-05-22T14:00:05.991Z,26.13
2023-05-22T14:01:06.060Z,25.61
2023-05-22T14:02:06.043Z,25.46
2023-05-22T14:03:06.093Z,25.90
2023-05-22T14:04:05.985Z,26.13
2023-05-22T14:05:05.967Z,25.98
2023-05-22T14:06:05.955Z,26.06
2023-05-22T14:07:05.948Z,26.28
2023-05-22T14:08:06.024Z,26.60
2023-05-22T14:09:05.961Z,26.92
2023-05-22T14:10:05.919Z,26.58
2023-05-22T14:11:05.946Z,26.45
2023-05-22T14:12:05.916Z,26.55
2023-05-22T14:13:05.913Z,26.40
2023-05-22T14:14:05.913Z,26.07
2023-05-22T14:15:05.907Z,25.99
2023-05-22T14:16:05.888Z,26.57
2023-05-22T14:17:05.938Z,27.03
2023-05-22T14:18:05.910Z,27.37
2023-05-22T14:19:05.883Z,27.46
2023-05-22T14:20:05.867Z,27.32
2023-05-22T14:21:05.898Z,26.67
2023-05-22T14:22:05.907Z,26.91
2023-05-22T14:23:05.863Z,26.52
2023-05-22T14:24:05.916Z,26.63
2023-05-22T14:25:05.847Z,26.12
2023-05-22T14:26:05.838Z,26.02
2023-05-22T14:27:05.812Z,26.21
2023-05-22T14:28:05.798Z,26.62
2023-05-22T14:29:05.819Z,26.25
2023-05-22T14:30:05.794Z,26.25
2023-05-22T14:31:05.861Z,26.43
2023-05-22T14:32:05.781Z,26.81
2023-05-22T14:33:05.852Z,27.03
2023-05-22T14:34:05.763Z,27.25
2023-05-22T14:35:05.768Z,27.22
2023-05-22T14:36:05.768Z,26.54
2023-05-22T14:37:05.754Z,25.88
2023-05-22T14:38:05.746Z,25.85
2023-05-22T14:39:05.739Z,26.36
2023-05-22T14:40:05.832Z,26.40
2023-05-22T14:41:05.771Z,26.47
2023-05-22T14:42:05.756Z,26.58
2023-05-22T14:43:05.756Z,26.62
2023-05-22T14:44:05.714Z,26.44
2023-05-22T14:45:05.717Z,26.33
2023-05-22T14:46:05.765Z,26.32
2023-05-22T14:47:05.725Z,26.58
2023-05-22T14:48:05.760Z,26.12
2023-05-22T14:49:05.693Z,26.47
2023-05-22T14:50:18.270Z,26.73
2023-05-22T14:51:05.673Z,26.82
2023-05-22T14:52:05.698Z,27.07
2023-05-22T14:53:05.690Z,27.34
2023-05-22T14:54:05.852Z,27.13
2023-05-22T14:55:05.664Z,26.29
2023-05-22T14:56:05.768Z,26.33
2023-05-22T14:57:05.657Z,26.76
2023-05-22T14:58:05.640Z,27.21
2023-05-22T14:59:05.663Z,27.32
2023-05-22T15:00:05.663Z,26.88
2023-05-22T15:01:05.687Z,26.72
2023-05-22T15:02:05.697Z,26.44
2023-05-22T15:03:05.625Z,26.32
2023-05-22T15:04:05.608Z,26.55
2023-05-22T15:05:05.722Z,26.40
2023-05-22T15:06:05.597Z,26.29
2023-05-22T15:07:05.646Z,26.15
2023-05-22T15:08:05.610Z,26.29
2023-05-22T15:09:05.570Z,26.25
2023-05-22T15:10:05.721Z,26.37
2023-05-22T15:11:05.588Z,26.01
2023-05-22T15:12:05.694Z,26.29
2023-05-22T15:13:05.554Z,25.69
2023-05-22T15:14:05.581Z,25.47
2023-05-22T15:15:05.599Z,25.45
2023-05-22T15:16:05.564Z,25.52
2023-05-22T15:17:05.573Z,26.09
2023-05-22T15:18:05.607Z,26.44
2023-05-22T15:19:05.565Z,26.40
2023-05-22T15:20:05.551Z,26.26
2023-05-22T15:21:05.528Z,26.40
2023-05-22T15:22:18.373Z,26.20
2023-05-22T15:23:05.497Z,25.82
2023-05-22T15:24:05.502Z,25.40
2023-05-22T15:25:05.491Z,25.35
2023-05-22T15:26:05.484Z,25.21
2023-05-22T15:27:05.510Z,25.35
2023-05-22T15:28:05.569Z,25.80
2023-05-22T15:29:05.477Z,25.87
2023-05-22T15:30:05.563Z,25.23
2023-05-22T15:31:05.449Z,25.21
2023-05-22T15:32:05.493Z,25.76
2023-05-22T15:33:05.492Z,25.90
2023-05-22T15:34:05.439Z,25.40
2023-05-22T15:35:05.437Z,25.35
2023-05-22T15:36:05.424Z,25.69
2023-05-22T15:37:05.442Z,25.79
2023-05-22T15:38:05.410Z,25.97
2023-05-22T15:39:05.403Z,26.20
2023-05-22T15:40:05.423Z,26.13
2023-05-22T15:41:05.414Z,26.13
2023-05-22T15:42:06.802Z,25.69
2023-05-22T15:43:05.394Z,25.70
2023-05-22T15:44:05.455Z,25.67
2023-05-22T15:45:05.401Z,25.70
2023-05-22T15:46:05.405Z,25.67
2023-05-22T15:47:05.365Z,25.83
2023-05-22T15:48:05.446Z,26.02
2023-05-22T15:49:05.369Z,25.85
2023-05-22T15:50:05.349Z,25.65
2023-05-22T15:51:05.326Z,25.57
2023-05-22T15:52:05.377Z,25.42
2023-05-22T15:53:05.334Z,25.42
2023-05-22T15:54:05.336Z,25.15
2023-05-22T15:55:05.377Z,24.96
2023-05-22T15:56:05.335Z,25.00
2023-05-22T15:57:05.318Z,25.32
2023-05-22T15:58:05.306Z,24.98
2023-05-22T15:59:05.278Z,24.76
2023-05-22T16:00:05.371Z,24.95
2023-05-22T16:01:05.332Z,24.85
2023-05-22T16:02:05.311Z,24.88
2023-05-22T16:03:05.350Z,25.05
2023-05-22T16:04:05.273Z,25.39
2023-05-22T16:05:05.314Z,25.67
2023-05-22T16:06:05.273Z,25.52
2023-05-22T16:10:55.669Z,24.87
2023-05-22T16:11:55.654Z,25.24
